Terminal Aerodrome Forecast
Issued by NWS

Home | Current Version | Previous Version | Text Only | Print | Product List | Glossary On
Versions: 1 2 3 4 5 6 7 8 9 10 11 12
000
FTUS46 KPDT 121100
TAFPSC
TAF
KPSC 121120Z 1212/1312 VRB04KT P6SM SCT150 SCT250
     FM122000 35007KT P6SM SCT250
     FM130300 VRB04KT P6SM SKC=

USA.gov is the U.S. government's official web portal to all federal, state and local government web resources and services.